sensor_id;sensor_type;location;lat;lon;timestamp;pressure;altitude;pressure_sealevel;temperature;humidity
48156;BME280;35568;48.104;11.782;2023-06-14T00:01:04;94937.66;;;13.18;37.74
48156;BME280;35568;48.104;11.782;2023-06-14T00:03:31;94935.36;;;13.00;37.93
48156;BME280;35568;48.104;11.782;2023-06-14T00:06:12;94934.59;;;12.91;37.99
48156;BME280;35568;48.104;11.782;2023-06-14T00:08:39;94935.61;;;12.88;38.24
48156;BME280;35568;48.104;11.782;2023-06-14T00:11:07;94939.78;;;12.66;38.25
48156;BME280;35568;48.104;11.782;2023-06-14T00:13:34;94940.83;;;12.51;38.38
48156;BME280;35568;48.104;11.782;2023-06-14T00:16:01;94938.22;;;12.70;38.35
48156;BME280;35568;48.104;11.782;2023-06-14T00:18:28;94935.81;;;12.65;38.74
48156;BME280;35568;48.104;11.782;2023-06-14T00:20:55;94938.26;;;12.68;38.68
48156;BME280;35568;48.104;11.782;2023-06-14T00:23:23;94936.18;;;12.63;39.00
48156;BME280;35568;48.104;11.782;2023-06-14T00:25:50;94934.49;;;12.65;39.11
48156;BME280;35568;48.104;11.782;2023-06-14T00:28:17;94929.29;;;12.47;39.07
48156;BME280;35568;48.104;11.782;2023-06-14T00:30:43;94928.38;;;12.49;39.07
48156;BME280;35568;48.104;11.782;2023-06-14T00:33:10;94925.28;;;12.46;39.07
48156;BME280;35568;48.104;11.782;2023-06-14T00:35:37;94926.41;;;12.48;39.09
48156;BME280;35568;48.104;11.782;2023-06-14T00:38:04;94926.99;;;12.15;39.44
48156;BME280;35568;48.104;11.782;2023-06-14T00:40:32;94927.96;;;12.61;39.37
48156;BME280;35568;48.104;11.782;2023-06-14T00:42:58;94927.49;;;12.32;39.45
48156;BME280;35568;48.104;11.782;2023-06-14T00:45:25;94928.08;;;12.18;39.61
48156;BME280;35568;48.104;11.782;2023-06-14T00:47:53;94928.00;;;12.19;39.90
48156;BME280;35568;48.104;11.782;2023-06-14T00:50:22;94925.25;;;12.11;40.07
48156;BME280;35568;48.104;11.782;2023-06-14T00:52:49;94927.25;;;12.03;39.97
48156;BME280;35568;48.104;11.782;2023-06-14T00:55:17;94927.89;;;12.31;40.11
48156;BME280;35568;48.104;11.782;2023-06-14T00:57:45;94928.79;;;12.04;40.64
48156;BME280;35568;48.104;11.782;2023-06-14T01:00:13;94932.36;;;12.12;40.22
48156;BME280;35568;48.104;11.782;2023-06-14T01:02:40;94932.29;;;11.87;40.46
48156;BME280;35568;48.104;11.782;2023-06-14T01:05:08;94931.38;;;11.88;40.30
48156;BME280;35568;48.104;11.782;2023-06-14T01:07:44;94930.09;;;11.94;40.39
48156;BME280;35568;48.104;11.782;2023-06-14T01:10:26;94929.75;;;11.75;40.91
48156;BME280;35568;48.104;11.782;2023-06-14T01:13:01;94928.39;;;11.84;41.76
48156;BME280;35568;48.104;11.782;2023-06-14T01:15:30;94932.74;;;11.32;42.05
48156;BME280;35568;48.104;11.782;2023-06-14T01:17:58;94933.46;;;11.51;42.07
48156;BME280;35568;48.104;11.782;2023-06-14T01:20:28;94932.50;;;11.50;42.07
48156;BME280;35568;48.104;11.782;2023-06-14T01:22:56;94930.93;;;11.48;42.00
48156;BME280;35568;48.104;11.782;2023-06-14T01:25:23;94929.02;;;11.36;42.26
48156;BME280;35568;48.104;11.782;2023-06-14T01:27:51;94925.12;;;11.05;42.05
48156;BME280;35568;48.104;11.782;2023-06-14T01:30:20;94922.62;;;11.39;41.81
48156;BME280;35568;48.104;11.782;2023-06-14T01:32:48;94922.78;;;11.36;41.69
48156;BME280;35568;48.104;11.782;2023-06-14T01:35:16;94919.80;;;11.36;41.51
48156;BME280;35568;48.104;11.782;2023-06-14T01:37:43;94917.97;;;11.04;41.67
48156;BME280;35568;48.104;11.782;2023-06-14T01:40:14;94919.28;;;11.44;41.69
48156;BME280;35568;48.104;11.782;2023-06-14T01:42:41;94918.84;;;11.22;41.71
48156;BME280;35568;48.104;11.782;2023-06-14T01:45:09;94916.62;;;11.18;41.73
48156;BME280;35568;48.104;11.782;2023-06-14T01:47:36;94916.78;;;11.28;41.74
48156;BME280;35568;48.104;11.782;2023-06-14T01:50:04;94916.05;;;11.06;42.05
48156;BME280;35568;48.104;11.782;2023-06-14T01:52:32;94914.46;;;11.18;41.93
48156;BME280;35568;48.104;11.782;2023-06-14T01:54:59;94914.57;;;11.29;42.54
48156;BME280;35568;48.104;11.782;2023-06-14T01:57:25;94913.79;;;11.07;42.23
48156;BME280;35568;48.104;11.782;2023-06-14T01:59:52;94912.23;;;10.78;42.61
48156;BME280;35568;48.104;11.782;2023-06-14T02:02:19;94912.90;;;10.81;42.68
48156;BME280;35568;48.104;11.782;2023-06-14T02:04:46;94913.52;;;10.68;42.65
48156;BME280;35568;48.104;11.782;2023-06-14T02:07:13;94913.94;;;10.77;42.87
48156;BME280;35568;48.104;11.782;2023-06-14T02:09:40;94917.08;;;10.95;42.80
48156;BME280;35568;48.104;11.782;2023-06-14T02:12:07;94917.38;;;10.88;43.04
48156;BME280;35568;48.104;11.782;2023-06-14T02:14:34;94918.77;;;10.55;43.04
48156;BME280;35568;48.104;11.782;2023-06-14T02:17:01;94918.12;;;10.32;43.36
48156;BME280;35568;48.104;11.782;2023-06-14T02:19:28;94916.82;;;10.42;43.17
48156;BME280;35568;48.104;11.782;2023-06-14T02:21:55;94916.23;;;10.39;43.25
48156;BME280;35568;48.104;11.782;2023-06-14T02:24:22;94917.79;;;10.56;42.85
48156;BME280;35568;48.104;11.782;2023-06-14T02:26:49;94915.50;;;10.08;43.07
48156;BME280;35568;48.104;11.782;2023-06-14T02:29:16;94914.68;;;10.30;43.00
48156;BME280;35568;48.104;11.782;2023-06-14T02:31:43;94910.91;;;10.33;42.62
48156;BME280;35568;48.104;11.782;2023-06-14T02:34:09;94913.47;;;10.19;42.75
48156;BME280;35568;48.104;11.782;2023-06-14T02:36:36;94911.05;;;10.29;43.11
48156;BME280;35568;48.104;11.782;2023-06-14T02:39:03;94914.02;;;10.35;43.19
48156;BME280;35568;48.104;11.782;2023-06-14T02:41:30;94916.83;;;9.93;42.99
48156;BME280;35568;48.104;11.782;2023-06-14T02:43:57;94919.21;;;10.21;42.95
48156;BME280;35568;48.104;11.782;2023-06-14T02:46:24;94918.49;;;10.13;43.25
48156;BME280;35568;48.104;11.782;2023-06-14T02:48:51;94916.85;;;10.05;43.25
48156;BME280;35568;48.104;11.782;2023-06-14T02:51:17;94916.10;;;9.99;43.08
48156;BME280;35568;48.104;11.782;2023-06-14T02:53:44;94916.46;;;10.06;43.14
48156;BME280;35568;48.104;11.782;2023-06-14T02:56:11;94912.28;;;9.85;43.52
48156;BME280;35568;48.104;11.782;2023-06-14T02:58:38;94917.01;;;9.79;43.46
48156;BME280;35568;48.104;11.782;2023-06-14T03:03:00;94921.62;;;10.00;42.67
48156;BME280;35568;48.104;11.782;2023-06-14T03:05:27;94923.82;;;10.30;42.53
48156;BME280;35568;48.104;11.782;2023-06-14T03:07:54;94924.43;;;10.20;42.62
48156;BME280;35568;48.104;11.782;2023-06-14T03:10:21;94925.63;;;10.23;42.79
48156;BME280;35568;48.104;11.782;2023-06-14T03:12:48;94929.35;;;10.16;42.75
48156;BME280;35568;48.104;11.782;2023-06-14T03:15:14;94933.02;;;9.93;43.50
48156;BME280;35568;48.104;11.782;2023-06-14T03:17:42;94932.49;;;9.82;43.84
48156;BME280;35568;48.104;11.782;2023-06-14T03:20:09;94936.23;;;9.63;44.03
48156;BME280;35568;48.104;11.782;2023-06-14T03:22:36;94940.78;;;10.01;43.77
48156;BME280;35568;48.104;11.782;2023-06-14T03:25:04;94940.98;;;9.70;43.89
48156;BME280;35568;48.104;11.782;2023-06-14T03:27:31;94942.17;;;9.88;43.83
48156;BME280;35568;48.104;11.782;2023-06-14T03:29:57;94944.79;;;9.72;44.06
48156;BME280;35568;48.104;11.782;2023-06-14T03:32:24;94946.80;;;10.15;44.43
48156;BME280;35568;48.104;11.782;2023-06-14T03:34:51;94944.93;;;9.59;44.44
48156;BME280;35568;48.104;11.782;2023-06-14T03:37:18;94944.99;;;9.56;44.24
48156;BME280;35568;48.104;11.782;2023-06-14T03:39:45;94944.65;;;9.53;44.41
48156;BME280;35568;48.104;11.782;2023-06-14T03:42:13;94944.68;;;9.74;44.62
48156;BME280;35568;48.104;11.782;2023-06-14T03:44:39;94946.35;;;9.65;44.27
48156;BME280;35568;48.104;11.782;2023-06-14T03:47:06;94948.00;;;9.88;44.24
48156;BME280;35568;48.104;11.782;2023-06-14T03:49:33;94947.44;;;9.58;44.51
48156;BME280;35568;48.104;11.782;2023-06-14T03:52:01;94949.63;;;9.51;44.62
48156;BME280;35568;48.104;11.782;2023-06-14T03:54:28;94951.48;;;9.58;44.38
48156;BME280;35568;48.104;11.782;2023-06-14T03:56:55;94953.79;;;9.73;44.29
48156;BME280;35568;48.104;11.782;2023-06-14T03:59:22;94960.96;;;10.27;43.99
48156;BME280;35568;48.104;11.782;2023-06-14T04:01:49;94965.84;;;10.13;43.84
48156;BME280;35568;48.104;11.782;2023-06-14T04:04:15;94970.06;;;10.07;43.64
48156;BME280;35568;48.104;11.782;2023-06-14T04:06:42;94972.98;;;10.28;43.61
48156;BME280;35568;48.104;11.782;2023-06-14T04:09:09;94974.24;;;10.21;43.62
48156;BME280;35568;48.104;11.782;2023-06-14T04:11:36;94977.15;;;10.61;43.27
48156;BME280;35568;48.104;11.782;2023-06-14T04:14:03;94983.21;;;10.39;43.28
48156;BME280;35568;48.104;11.782;2023-06-14T04:16:30;94989.44;;;10.60;42.86
48156;BME280;35568;48.104;11.782;2023-06-14T04:18:57;94993.28;;;10.95;43.06
48156;BME280;35568;48.104;11.782;2023-06-14T04:21:24;94993.06;;;11.10;42.87
48156;BME280;35568;48.104;11.782;2023-06-14T04:23:51;94988.62;;;11.06;42.64
48156;BME280;35568;48.104;11.782;2023-06-14T04:26:18;94989.82;;;10.71;42.50
48156;BME280;35568;48.104;11.782;2023-06-14T04:28:45;94991.00;;;11.27;42.65
48156;BME280;35568;48.104;11.782;2023-06-14T04:31:11;94993.67;;;11.10;42.54
48156;BME280;35568;48.104;11.782;2023-06-14T04:33:38;94997.65;;;11.46;42.17
48156;BME280;35568;48.104;11.782;2023-06-14T04:36:05;94999.58;;;11.71;41.90
48156;BME280;35568;48.104;11.782;2023-06-14T04:38:32;94999.86;;;11.81;41.67
48156;BME280;35568;48.104;11.782;2023-06-14T04:40:59;95001.72;;;11.62;41.36
48156;BME280;35568;48.104;11.782;2023-06-14T04:43:26;95001.35;;;11.91;41.50
48156;BME280;35568;48.104;11.782;2023-06-14T04:45:53;94996.76;;;12.22;41.03
48156;BME280;35568;48.104;11.782;2023-06-14T04:48:20;94997.83;;;12.24;40.51
48156;BME280;35568;48.104;11.782;2023-06-14T04:50:47;94998.71;;;12.24;40.71
48156;BME280;35568;48.104;11.782;2023-06-14T04:53:14;95003.05;;;12.54;40.71
48156;BME280;35568;48.104;11.782;2023-06-14T04:55:41;95006.60;;;12.71;40.48
48156;BME280;35568;48.104;11.782;2023-06-14T04:58:07;95009.69;;;12.88;40.23
48156;BME280;35568;48.104;11.782;2023-06-14T05:00:34;95011.48;;;12.94;40.05
48156;BME280;35568;48.104;11.782;2023-06-14T05:03:01;95009.41;;;13.22;39.98
48156;BME280;35568;48.104;11.782;2023-06-14T05:05:28;95012.58;;;13.33;39.58
48156;BME280;35568;48.104;11.782;2023-06-14T05:07:55;95013.57;;;13.32;39.20
48156;BME280;35568;48.104;11.782;2023-06-14T05:10:22;95013.99;;;13.73;38.80
48156;BME280;35568;48.104;11.782;2023-06-14T05:12:49;95016.30;;;13.77;38.56
48156;BME280;35568;48.104;11.782;2023-06-14T05:15:16;95018.38;;;14.15;38.49
48156;BME280;35568;48.104;11.782;2023-06-14T05:17:43;95017.10;;;14.49;38.27
48156;BME280;35568;48.104;11.782;2023-06-14T05:20:10;95018.86;;;14.75;37.75
48156;BME280;35568;48.104;11.782;2023-06-14T05:22:37;95019.31;;;14.57;37.82
48156;BME280;35568;48.104;11.782;2023-06-14T05:25:04;95017.94;;;14.91;37.53
48156;BME280;35568;48.104;11.782;2023-06-14T05:27:32;95015.20;;;14.82;36.94
48156;BME280;35568;48.104;11.782;2023-06-14T05:29:58;95020.27;;;15.27;36.95
48156;BME280;35568;48.104;11.782;2023-06-14T05:32:25;95023.78;;;15.26;36.87
48156;BME280;35568;48.104;11.782;2023-06-14T05:34:52;95023.84;;;15.48;36.73
48156;BME280;35568;48.104;11.782;2023-06-14T05:37:19;95024.00;;;15.96;36.25
48156;BME280;35568;48.104;11.782;2023-06-14T05:39:46;95027.95;;;15.66;35.89
48156;BME280;35568;48.104;11.782;2023-06-14T05:42:13;95031.26;;;16.53;35.12
48156;BME280;35568;48.104;11.782;2023-06-14T05:45:49;95033.32;;;16.50;35.36
48156;BME280;35568;48.104;11.782;2023-06-14T05:48:17;95034.90;;;16.88;34.98
48156;BME280;35568;48.104;11.782;2023-06-14T05:50:44;95032.35;;;17.32;34.77
48156;BME280;35568;48.104;11.782;2023-06-14T05:53:19;95032.47;;;17.30;34.57
48156;BME280;35568;48.104;11.782;2023-06-14T05:56:15;95029.71;;;17.48;34.13
48156;BME280;35568;48.104;11.782;2023-06-14T05:58:43;95028.91;;;17.58;33.90
48156;BME280;35568;48.104;11.782;2023-06-14T06:01:11;95026.28;;;17.70;33.27
48156;BME280;35568;48.104;11.782;2023-06-14T06:03:39;95027.23;;;17.73;32.99
48156;BME280;35568;48.104;11.782;2023-06-14T06:06:07;95027.03;;;18.20;33.02
48156;BME280;35568;48.104;11.782;2023-06-14T06:08:35;95029.35;;;18.19;32.60
48156;BME280;35568;48.104;11.782;2023-06-14T06:11:02;95029.73;;;18.35;32.24
48156;BME280;35568;48.104;11.782;2023-06-14T06:13:29;95030.03;;;18.73;31.76
48156;BME280;35568;48.104;11.782;2023-06-14T06:15:55;95038.22;;;18.91;31.79
48156;BME280;35568;48.104;11.782;2023-06-14T06:18:22;95043.84;;;19.03;31.51
48156;BME280;35568;48.104;11.782;2023-06-14T06:20:49;95047.46;;;18.92;31.37
48156;BME280;35568;48.104;11.782;2023-06-14T06:23:16;95050.28;;;19.33;31.12
48156;BME280;35568;48.104;11.782;2023-06-14T06:25:43;95048.71;;;19.94;30.96
48156;BME280;35568;48.104;11.782;2023-06-14T06:28:09;95049.03;;;20.02;30.01
48156;BME280;35568;48.104;11.782;2023-06-14T06:30:36;95050.10;;;19.94;29.83
48156;BME280;35568;48.104;11.782;2023-06-14T06:33:03;95054.26;;;19.38;29.86
48156;BME280;35568;48.104;11.782;2023-06-14T06:35:30;95054.55;;;19.18;29.84
48156;BME280;35568;48.104;11.782;2023-06-14T06:37:57;95054.87;;;19.48;29.92
48156;BME280;35568;48.104;11.782;2023-06-14T06:40:24;95055.26;;;20.05;29.31
48156;BME280;35568;48.104;11.782;2023-06-14T06:42:51;95056.95;;;19.96;28.95
48156;BME280;35568;48.104;11.782;2023-06-14T06:45:18;95051.97;;;20.16;29.18
48156;BME280;35568;48.104;11.782;2023-06-14T06:47:45;95054.00;;;20.62;28.96
48156;BME280;35568;48.104;11.782;2023-06-14T06:50:11;95054.46;;;21.37;28.13
48156;BME280;35568;48.104;11.782;2023-06-14T06:52:38;95059.14;;;21.55;27.73
48156;BME280;35568;48.104;11.782;2023-06-14T06:55:06;95063.87;;;21.40;27.58
48156;BME280;35568;48.104;11.782;2023-06-14T06:57:34;95064.98;;;21.17;27.98
48156;BME280;35568;48.104;11.782;2023-06-14T07:00:00;95064.00;;;21.48;27.96
48156;BME280;35568;48.104;11.782;2023-06-14T07:02:27;95062.40;;;21.80;27.52
48156;BME280;35568;48.104;11.782;2023-06-14T07:04:54;95067.01;;;21.99;26.95
48156;BME280;35568;48.104;11.782;2023-06-14T07:07:21;95063.84;;;22.25;26.59
48156;BME280;35568;48.104;11.782;2023-06-14T07:09:48;95065.31;;;22.17;26.54
48156;BME280;35568;48.104;11.782;2023-06-14T07:12:16;95067.49;;;22.61;25.68
48156;BME280;35568;48.104;11.782;2023-06-14T07:14:42;95068.56;;;22.71;25.73
48156;BME280;35568;48.104;11.782;2023-06-14T07:17:09;95068.35;;;23.03;26.07
48156;BME280;35568;48.104;11.782;2023-06-14T07:19:36;95069.11;;;23.18;25.50
48156;BME280;35568;48.104;11.782;2023-06-14T07:22:03;95070.47;;;23.50;25.26
48156;BME280;35568;48.104;11.782;2023-06-14T07:24:31;95068.98;;;23.51;25.27
48156;BME280;35568;48.104;11.782;2023-06-14T07:26:57;95077.31;;;23.55;24.52
48156;BME280;35568;48.104;11.782;2023-06-14T07:29:24;95081.01;;;24.00;24.54
48156;BME280;35568;48.104;11.782;2023-06-14T07:31:51;95079.58;;;23.61;24.37
48156;BME280;35568;48.104;11.782;2023-06-14T07:34:18;95083.23;;;23.17;24.61
48156;BME280;35568;48.104;11.782;2023-06-14T07:36:45;95081.27;;;23.32;24.69
48156;BME280;35568;48.104;11.782;2023-06-14T07:39:13;95082.02;;;23.10;24.09
48156;BME280;35568;48.104;11.782;2023-06-14T07:41:40;95083.68;;;23.95;24.04
48156;BME280;35568;48.104;11.782;2023-06-14T07:44:06;95083.57;;;24.49;23.34
48156;BME280;35568;48.104;11.782;2023-06-14T07:46:33;95084.56;;;23.51;23.80
48156;BME280;35568;48.104;11.782;2023-06-14T07:49:00;95082.29;;;23.70;23.76
48156;BME280;35568;48.104;11.782;2023-06-14T07:51:27;95081.61;;;24.33;24.00
48156;BME280;35568;48.104;11.782;2023-06-14T07:53:54;95087.09;;;24.75;23.56
48156;BME280;35568;48.104;11.782;2023-06-14T07:56:21;95085.48;;;25.19;23.43
48156;BME280;35568;48.104;11.782;2023-06-14T07:58:48;95084.00;;;24.98;22.63
48156;BME280;35568;48.104;11.782;2023-06-14T08:01:14;95080.09;;;25.58;22.55
48156;BME280;35568;48.104;11.782;2023-06-14T08:03:41;95078.77;;;25.41;22.07
48156;BME280;35568;48.104;11.782;2023-06-14T08:06:09;95070.89;;;26.23;21.46
48156;BME280;35568;48.104;11.782;2023-06-14T08:08:36;95079.45;;;25.73;21.68
48156;BME280;35568;48.104;11.782;2023-06-14T08:11:03;95076.54;;;25.59;21.13
48156;BME280;35568;48.104;11.782;2023-06-14T08:13:30;95076.35;;;25.83;20.87
48156;BME280;35568;48.104;11.782;2023-06-14T08:15:57;95079.01;;;26.79;20.05
48156;BME280;35568;48.104;11.782;2023-06-14T08:18:24;95077.75;;;26.49;19.79
48156;BME280;35568;48.104;11.782;2023-06-14T08:20:51;95082.67;;;26.52;19.61
48156;BME280;35568;48.104;11.782;2023-06-14T08:23:18;95082.62;;;26.72;19.60
48156;BME280;35568;48.104;11.782;2023-06-14T08:25:45;95082.49;;;26.98;19.48
48156;BME280;35568;48.104;11.782;2023-06-14T08:28:13;95090.16;;;26.48;20.08
48156;BME280;35568;48.104;11.782;2023-06-14T08:30:40;95085.21;;;26.77;19.95
48156;BME280;35568;48.104;11.782;2023-06-14T08:33:08;95086.25;;;26.87;19.77
48156;BME280;35568;48.104;11.782;2023-06-14T08:35:35;95087.28;;;26.50;20.13
48156;BME280;35568;48.104;11.782;2023-06-14T08:38:02;95091.89;;;26.84;18.41
48156;BME280;35568;48.104;11.782;2023-06-14T08:40:30;95094.84;;;27.10;18.94
48156;BME280;35568;48.104;11.782;2023-06-14T08:42:57;95098.16;;;28.19;18.41
48156;BME280;35568;48.104;11.782;2023-06-14T08:45:24;95097.59;;;28.09;17.47
48156;BME280;35568;48.104;11.782;2023-06-14T08:47:52;95097.05;;;28.17;16.87
48156;BME280;35568;48.104;11.782;2023-06-14T08:50:21;95101.69;;;27.98;17.64
48156;BME280;35568;48.104;11.782;2023-06-14T08:52:53;95102.21;;;27.95;17.56
48156;BME280;35568;48.104;11.782;2023-06-14T08:55:20;95097.68;;;28.52;17.35
48156;BME280;35568;48.104;11.782;2023-06-14T08:57:48;95097.17;;;28.64;16.85
48156;BME280;35568;48.104;11.782;2023-06-14T09:00:16;95091.89;;;28.55;17.06
48156;BME280;35568;48.104;11.782;2023-06-14T09:02:43;95099.48;;;28.19;17.40
48156;BME280;35568;48.104;11.782;2023-06-14T09:05:10;95096.11;;;28.78;17.05
48156;BME280;35568;48.104;11.782;2023-06-14T09:07:37;95099.61;;;29.36;16.51
48156;BME280;35568;48.104;11.782;2023-06-14T09:10:08;95093.51;;;29.31;16.80
48156;BME280;35568;48.104;11.782;2023-06-14T09:12:35;95099.42;;;28.99;16.72
48156;BME280;35568;48.104;11.782;2023-06-14T09:15:02;95102.82;;;28.48;16.93
48156;BME280;35568;48.104;11.782;2023-06-14T09:17:30;95100.95;;;28.97;16.93
48156;BME280;35568;48.104;11.782;2023-06-14T09:19:59;95100.41;;;29.71;16.68
48156;BME280;35568;48.104;11.782;2023-06-14T09:22:27;95101.33;;;29.58;16.24
48156;BME280;35568;48.104;11.782;2023-06-14T09:24:55;95098.63;;;29.69;16.34
48156;BME280;35568;48.104;11.782;2023-06-14T09:27:22;95104.84;;;29.70;16.22
48156;BME280;35568;48.104;11.782;2023-06-14T09:29:49;95108.70;;;29.17;16.35
48156;BME280;35568;48.104;11.782;2023-06-14T09:32:16;95104.84;;;29.47;16.58
48156;BME280;35568;48.104;11.782;2023-06-14T09:34:43;95108.17;;;28.77;16.63
48156;BME280;35568;48.104;11.782;2023-06-14T09:37:09;95108.31;;;29.41;16.08
48156;BME280;35568;48.104;11.782;2023-06-14T09:39:49;95108.69;;;28.98;16.05
48156;BME280;35568;48.104;11.782;2023-06-14T09:42:17;95117.07;;;29.08;16.29
48156;BME280;35568;48.104;11.782;2023-06-14T09:44:46;95114.98;;;29.54;16.57
48156;BME280;35568;48.104;11.782;2023-06-14T09:47:15;95110.96;;;29.40;16.33
48156;BME280;35568;48.104;11.782;2023-06-14T09:49:42;95113.61;;;30.28;16.36
48156;BME280;35568;48.104;11.782;2023-06-14T09:52:12;95108.13;;;30.99;15.58
48156;BME280;35568;48.104;11.782;2023-06-14T09:54:42;95106.97;;;31.07;15.26
48156;BME280;35568;48.104;11.782;2023-06-14T09:57:10;95120.75;;;30.82;15.34
48156;BME280;35568;48.104;11.782;2023-06-14T09:59:40;95109.76;;;30.79;15.59
48156;BME280;35568;48.104;11.782;2023-06-14T10:02:12;95118.30;;;29.98;16.19
48156;BME280;35568;48.104;11.782;2023-06-14T10:04:46;95110.97;;;29.61;15.83
48156;BME280;35568;48.104;11.782;2023-06-14T10:07:21;95104.32;;;29.96;15.81
48156;BME280;35568;48.104;11.782;2023-06-14T10:09:50;95107.45;;;29.49;16.58
48156;BME280;35568;48.104;11.782;2023-06-14T10:12:17;95114.95;;;28.60;16.62
48156;BME280;35568;48.104;11.782;2023-06-14T10:14:44;95108.01;;;28.03;17.09
48156;BME280;35568;48.104;11.782;2023-06-14T10:17:20;95105.94;;;27.66;17.42
48156;BME280;35568;48.104;11.782;2023-06-14T10:19:50;95102.69;;;27.49;17.56
48156;BME280;35568;48.104;11.782;2023-06-14T10:22:26;95100.91;;;28.58;17.38
48156;BME280;35568;48.104;11.782;2023-06-14T10:24:56;95106.62;;;29.11;16.91
48156;BME280;35568;48.104;11.782;2023-06-14T10:27:22;95109.41;;;28.62;16.89
48156;BME280;35568;48.104;11.782;2023-06-14T10:30:07;95105.25;;;28.34;17.14
48156;BME280;35568;48.104;11.782;2023-06-14T10:32:34;95106.04;;;27.48;17.83
48156;BME280;35568;48.104;11.782;2023-06-14T10:35:05;95102.68;;;27.73;17.68
48156;BME280;35568;48.104;11.782;2023-06-14T10:37:33;95095.70;;;28.14;17.56
48156;BME280;35568;48.104;11.782;2023-06-14T10:40:00;95102.91;;;26.99;18.13
48156;BME280;35568;48.104;11.782;2023-06-14T10:42:31;95102.13;;;27.16;18.18
48156;BME280;35568;48.104;11.782;2023-06-14T10:44:59;95099.12;;;26.14;18.87
48156;BME280;35568;48.104;11.782;2023-06-14T10:47:28;95100.11;;;27.18;18.51
48156;BME280;35568;48.104;11.782;2023-06-14T10:49:57;95099.67;;;28.72;17.59
48156;BME280;35568;48.104;11.782;2023-06-14T10:52:26;95101.96;;;28.84;17.63
48156;BME280;35568;48.104;11.782;2023-06-14T10:55:01;95101.84;;;28.48;17.69
48156;BME280;35568;48.104;11.782;2023-06-14T10:57:29;95101.69;;;27.45;18.34
48156;BME280;35568;48.104;11.782;2023-06-14T10:59:57;95100.48;;;28.50;17.98
48156;BME280;35568;48.104;11.782;2023-06-14T11:02:48;95100.84;;;29.21;17.97
48156;BME280;35568;48.104;11.782;2023-06-14T11:05:24;95100.17;;;29.13;17.80
48156;BME280;35568;48.104;11.782;2023-06-14T11:08:04;95092.64;;;29.05;17.46
48156;BME280;35568;48.104;11.782;2023-06-14T11:10:38;95095.53;;;29.69;17.40
48156;BME280;35568;48.104;11.782;2023-06-14T11:13:05;95093.54;;;30.31;16.71
48156;BME280;35568;48.104;11.782;2023-06-14T11:15:34;95090.56;;;29.49;17.29
48156;BME280;35568;48.104;11.782;2023-06-14T11:18:01;95094.13;;;28.89;17.55
48156;BME280;35568;48.104;11.782;2023-06-14T11:20:30;95092.95;;;28.19;17.86
48156;BME280;35568;48.104;11.782;2023-06-14T11:22:58;95093.92;;;26.90;17.98
48156;BME280;35568;48.104;11.782;2023-06-14T11:25:26;95092.86;;;28.51;17.23
48156;BME280;35568;48.104;11.782;2023-06-14T11:27:54;95093.62;;;29.83;15.65
48156;BME280;35568;48.104;11.782;2023-06-14T11:30:22;95094.70;;;30.41;15.56
48156;BME280;35568;48.104;11.782;2023-06-14T11:32:49;95095.17;;;31.29;15.53
48156;BME280;35568;48.104;11.782;2023-06-14T11:35:17;95088.30;;;31.57;15.24
48156;BME280;35568;48.104;11.782;2023-06-14T11:37:44;95089.58;;;31.64;15.04
48156;BME280;35568;48.104;11.782;2023-06-14T11:40:12;95090.66;;;31.84;14.49
48156;BME280;35568;48.104;11.782;2023-06-14T11:42:40;95081.71;;;32.36;14.03
48156;BME280;35568;48.104;11.782;2023-06-14T11:45:09;95077.03;;;32.48;14.36
48156;BME280;35568;48.104;11.782;2023-06-14T11:47:37;95079.40;;;32.50;14.40
48156;BME280;35568;48.104;11.782;2023-06-14T11:50:06;95078.99;;;32.94;13.89
48156;BME280;35568;48.104;11.782;2023-06-14T11:52:34;95082.20;;;32.76;13.84
48156;BME280;35568;48.104;11.782;2023-06-14T11:55:02;95075.84;;;32.80;13.36
48156;BME280;35568;48.104;11.782;2023-06-14T11:57:29;95076.76;;;33.42;13.49
48156;BME280;35568;48.104;11.782;2023-06-14T11:59:56;95073.46;;;33.26;13.28
48156;BME280;35568;48.104;11.782;2023-06-14T12:02:23;95077.38;;;33.59;13.41
48156;BME280;35568;48.104;11.782;2023-06-14T12:04:50;95080.89;;;33.46;13.48
48156;BME280;35568;48.104;11.782;2023-06-14T12:07:17;95077.07;;;33.78;13.19
48156;BME280;35568;48.104;11.782;2023-06-14T12:10:04;95073.48;;;33.75;12.71
48156;BME280;35568;48.104;11.782;2023-06-14T12:12:35;95073.12;;;33.10;13.57
48156;BME280;35568;48.104;11.782;2023-06-14T12:15:03;95077.21;;;33.57;13.52
48156;BME280;35568;48.104;11.782;2023-06-14T12:17:32;95076.30;;;33.25;13.63
48156;BME280;35568;48.104;11.782;2023-06-14T12:20:04;95068.91;;;32.98;13.35
48156;BME280;35568;48.104;11.782;2023-06-14T12:22:32;95068.74;;;33.56;13.40
48156;BME280;35568;48.104;11.782;2023-06-14T12:24:58;95072.46;;;33.18;13.46
48156;BME280;35568;48.104;11.782;2023-06-14T12:27:26;95073.44;;;33.59;13.93
48156;BME280;35568;48.104;11.782;2023-06-14T12:29:59;95070.81;;;32.94;13.60
48156;BME280;35568;48.104;11.782;2023-06-14T12:32:27;95072.27;;;33.69;13.09
48156;BME280;35568;48.104;11.782;2023-06-14T12:34:55;95066.07;;;32.93;13.19
48156;BME280;35568;48.104;11.782;2023-06-14T12:37:21;95066.93;;;33.65;13.44
48156;BME280;35568;48.104;11.782;2023-06-14T12:39:48;95066.01;;;33.53;13.26
48156;BME280;35568;48.104;11.782;2023-06-14T12:42:15;95064.84;;;33.74;13.20
48156;BME280;35568;48.104;11.782;2023-06-14T12:44:42;95068.24;;;34.07;12.85
48156;BME280;35568;48.104;11.782;2023-06-14T12:47:09;95071.99;;;33.90;12.84
48156;BME280;35568;48.104;11.782;2023-06-14T12:49:36;95073.76;;;32.93;12.95
48156;BME280;35568;48.104;11.782;2023-06-14T12:52:03;95076.87;;;32.09;13.62
48156;BME280;35568;48.104;11.782;2023-06-14T12:54:31;95081.02;;;31.91;13.54
48156;BME280;35568;48.104;11.782;2023-06-14T12:56:57;95074.49;;;32.88;13.37